Aarhus Airport

Airport
ICAO code: 
EKAH
IATA Code: 
AAR
Summary
ICAO Region: 
EUR
Territory: 
Location: 
Tirstrup, Central Jutland Region
Serving: 
Aarhus
Elevation: 
82 ft
Coordinates: 
Aerial View: 
56° 18' 11.421" N, 10° 37' 4.388" E
Metar
Observation
EKAH 071650Z AUTO 14011KT 090V180 9999 OVC017/// 02/M01 Q1009
Station
Tirstrup
Date/Time
2021-12-07 16:50:00
Wind direction
140°
Wind speed
11 kts
Lowest cloud amount
overcast
Temperature
2°C
Dew point
-1°C
Humidity
80%
QNH
1009 hPa
Weather condition
n/a

Description

International airport serving Aarhus, Denmark.

Climatology

Temperate Marine climate/Oceanic climate (Köppen climate classification Cfb). Moderately cool summer and comparatively warm winter with a temperature range of only 14°C. Prevailing south-westerly winds from the Atlantic Ocean.

Runways

Designator Length Width Surface Rops
10R/28L 2702 45 PEM Yes/Yes
10L/28R 2777 23 PEM Yes/Yes
Airport map: 
Aerial View: 

Accidents and Serious Incidents at or in the vicinity of EKAH

SKYbrary Partners:

Safety knowledge contributed by: